sensor_id;sensor_type;location;lat;lon;timestamp;P1;durP1;ratioP1;P2;durP2;ratioP2
20697;SDS011;10508;50.956;4.640;2023-04-09T00:01:58;25.42;;;13.27;;
20697;SDS011;10508;50.956;4.640;2023-04-09T00:04:24;24.33;;;12.93;;
20697;SDS011;10508;50.956;4.640;2023-04-09T00:06:50;27.92;;;13.98;;
20697;SDS011;10508;50.956;4.640;2023-04-09T00:09:16;25.48;;;12.65;;
20697;SDS011;10508;50.956;4.640;2023-04-09T00:11:42;26.52;;;13.88;;
20697;SDS011;10508;50.956;4.640;2023-04-09T00:14:08;29.27;;;13.50;;
20697;SDS011;10508;50.956;4.640;2023-04-09T00:16:34;29.23;;;13.80;;
20697;SDS011;10508;50.956;4.640;2023-04-09T00:19:00;25.48;;;12.50;;
20697;SDS011;10508;50.956;4.640;2023-04-09T00:21:26;25.35;;;13.00;;
20697;SDS011;10508;50.956;4.640;2023-04-09T00:23:52;26.17;;;13.63;;
20697;SDS011;10508;50.956;4.640;2023-04-09T00:26:18;28.58;;;12.23;;
20697;SDS011;10508;50.956;4.640;2023-04-09T00:28:45;29.98;;;14.38;;
20697;SDS011;10508;50.956;4.640;2023-04-09T00:31:11;27.05;;;12.65;;
20697;SDS011;10508;50.956;4.640;2023-04-09T00:33:37;25.70;;;13.75;;
20697;SDS011;10508;50.956;4.640;2023-04-09T00:36:03;27.55;;;13.30;;
20697;SDS011;10508;50.956;4.640;2023-04-09T00:38:29;29.85;;;13.43;;
20697;SDS011;10508;50.956;4.640;2023-04-09T00:40:55;27.15;;;13.13;;
20697;SDS011;10508;50.956;4.640;2023-04-09T00:43:21;23.67;;;12.10;;
20697;SDS011;10508;50.956;4.640;2023-04-09T00:45:47;26.23;;;12.45;;
20697;SDS011;10508;50.956;4.640;2023-04-09T00:48:14;27.40;;;13.18;;
20697;SDS011;10508;50.956;4.640;2023-04-09T00:50:40;28.35;;;13.10;;
20697;SDS011;10508;50.956;4.640;2023-04-09T00:53:06;31.85;;;12.85;;
20697;SDS011;10508;50.956;4.640;2023-04-09T00:55:33;23.95;;;12.50;;
20697;SDS011;10508;50.956;4.640;2023-04-09T00:58:00;26.17;;;12.68;;
20697;SDS011;10508;50.956;4.640;2023-04-09T01:00:26;24.83;;;11.98;;
20697;SDS011;10508;50.956;4.640;2023-04-09T01:02:52;24.08;;;11.25;;
20697;SDS011;10508;50.956;4.640;2023-04-09T01:05:20;24.33;;;12.23;;
20697;SDS011;10508;50.956;4.640;2023-04-09T01:07:53;26.77;;;12.63;;
20697;SDS011;10508;50.956;4.640;2023-04-09T01:12:53;21.73;;;11.57;;
20697;SDS011;10508;50.956;4.640;2023-04-09T01:15:24;28.30;;;12.75;;
20697;SDS011;10508;50.956;4.640;2023-04-09T01:18:09;30.30;;;13.73;;
20697;SDS011;10508;50.956;4.640;2023-04-09T01:20:40;28.58;;;12.60;;
20697;SDS011;10508;50.956;4.640;2023-04-09T01:23:13;24.35;;;11.50;;
20697;SDS011;10508;50.956;4.640;2023-04-09T01:28:11;25.05;;;12.35;;
20697;SDS011;10508;50.956;4.640;2023-04-09T01:30:40;24.35;;;11.63;;
20697;SDS011;10508;50.956;4.640;2023-04-09T01:33:08;26.55;;;12.68;;
20697;SDS011;10508;50.956;4.640;2023-04-09T01:35:36;24.58;;;10.45;;
20697;SDS011;10508;50.956;4.640;2023-04-09T01:38:02;25.98;;;11.75;;
20697;SDS011;10508;50.956;4.640;2023-04-09T01:40:28;26.85;;;11.18;;
20697;SDS011;10508;50.956;4.640;2023-04-09T01:42:54;28.10;;;12.45;;
20697;SDS011;10508;50.956;4.640;2023-04-09T01:45:21;26.33;;;12.38;;
20697;SDS011;10508;50.956;4.640;2023-04-09T01:47:47;23.17;;;11.68;;
20697;SDS011;10508;50.956;4.640;2023-04-09T01:50:13;20.65;;;11.77;;
20697;SDS011;10508;50.956;4.640;2023-04-09T01:52:40;26.58;;;13.15;;
20697;SDS011;10508;50.956;4.640;2023-04-09T01:55:06;26.75;;;12.52;;
20697;SDS011;10508;50.956;4.640;2023-04-09T01:57:32;24.27;;;11.90;;
20697;SDS011;10508;50.956;4.640;2023-04-09T01:59:59;26.42;;;12.95;;
20697;SDS011;10508;50.956;4.640;2023-04-09T02:02:32;26.02;;;11.98;;
20697;SDS011;10508;50.956;4.640;2023-04-09T02:05:00;26.38;;;11.68;;
20697;SDS011;10508;50.956;4.640;2023-04-09T02:07:37;28.10;;;12.43;;
20697;SDS011;10508;50.956;4.640;2023-04-09T02:10:04;26.05;;;11.55;;
20697;SDS011;10508;50.956;4.640;2023-04-09T02:12:32;29.23;;;13.60;;
20697;SDS011;10508;50.956;4.640;2023-04-09T02:14:58;28.17;;;14.38;;
20697;SDS011;10508;50.956;4.640;2023-04-09T02:17:25;27.25;;;13.68;;
20697;SDS011;10508;50.956;4.640;2023-04-09T02:19:51;26.38;;;13.05;;
20697;SDS011;10508;50.956;4.640;2023-04-09T02:22:17;28.05;;;13.73;;
20697;SDS011;10508;50.956;4.640;2023-04-09T02:24:44;28.65;;;13.57;;
20697;SDS011;10508;50.956;4.640;2023-04-09T02:27:10;27.48;;;13.18;;
20697;SDS011;10508;50.956;4.640;2023-04-09T02:29:40;30.58;;;14.50;;
20697;SDS011;10508;50.956;4.640;2023-04-09T02:32:06;26.00;;;13.15;;
20697;SDS011;10508;50.956;4.640;2023-04-09T02:34:32;33.00;;;13.55;;
20697;SDS011;10508;50.956;4.640;2023-04-09T02:36:58;27.70;;;13.30;;
20697;SDS011;10508;50.956;4.640;2023-04-09T02:39:24;35.33;;;13.57;;
20697;SDS011;10508;50.956;4.640;2023-04-09T02:41:51;27.17;;;13.60;;
20697;SDS011;10508;50.956;4.640;2023-04-09T02:44:17;27.05;;;13.27;;
20697;SDS011;10508;50.956;4.640;2023-04-09T02:46:43;27.73;;;13.60;;
20697;SDS011;10508;50.956;4.640;2023-04-09T02:49:09;27.05;;;13.80;;
20697;SDS011;10508;50.956;4.640;2023-04-09T02:51:35;32.25;;;14.55;;
20697;SDS011;10508;50.956;4.640;2023-04-09T02:54:01;23.58;;;12.65;;
20697;SDS011;10508;50.956;4.640;2023-04-09T02:56:28;26.48;;;13.43;;
20697;SDS011;10508;50.956;4.640;2023-04-09T02:58:54;29.17;;;13.52;;
20697;SDS011;10508;50.956;4.640;2023-04-09T03:01:20;32.05;;;14.98;;
20697;SDS011;10508;50.956;4.640;2023-04-09T03:03:46;30.45;;;14.10;;
20697;SDS011;10508;50.956;4.640;2023-04-09T03:06:12;32.38;;;14.23;;
20697;SDS011;10508;50.956;4.640;2023-04-09T03:08:38;27.58;;;14.10;;
20697;SDS011;10508;50.956;4.640;2023-04-09T03:11:04;29.15;;;14.45;;
20697;SDS011;10508;50.956;4.640;2023-04-09T03:13:30;26.23;;;13.10;;
20697;SDS011;10508;50.956;4.640;2023-04-09T03:15:56;31.98;;;14.60;;
20697;SDS011;10508;50.956;4.640;2023-04-09T03:18:22;25.85;;;13.15;;
20697;SDS011;10508;50.956;4.640;2023-04-09T03:20:48;30.63;;;13.77;;
20697;SDS011;10508;50.956;4.640;2023-04-09T03:23:14;27.33;;;13.52;;
20697;SDS011;10508;50.956;4.640;2023-04-09T03:25:40;30.48;;;14.80;;
20697;SDS011;10508;50.956;4.640;2023-04-09T03:28:06;29.25;;;14.50;;
20697;SDS011;10508;50.956;4.640;2023-04-09T03:30:32;30.10;;;14.23;;
20697;SDS011;10508;50.956;4.640;2023-04-09T03:32:58;27.38;;;12.80;;
20697;SDS011;10508;50.956;4.640;2023-04-09T03:35:24;25.50;;;13.20;;
20697;SDS011;10508;50.956;4.640;2023-04-09T03:37:50;31.25;;;12.95;;
20697;SDS011;10508;50.956;4.640;2023-04-09T03:40:16;25.02;;;12.07;;
20697;SDS011;10508;50.956;4.640;2023-04-09T03:42:42;33.15;;;13.68;;
20697;SDS011;10508;50.956;4.640;2023-04-09T03:45:09;29.42;;;12.88;;
20697;SDS011;10508;50.956;4.640;2023-04-09T03:47:35;25.80;;;12.30;;
20697;SDS011;10508;50.956;4.640;2023-04-09T03:50:01;26.38;;;12.38;;
20697;SDS011;10508;50.956;4.640;2023-04-09T03:52:27;24.95;;;11.75;;
20697;SDS011;10508;50.956;4.640;2023-04-09T03:54:53;23.13;;;10.68;;
20697;SDS011;10508;50.956;4.640;2023-04-09T03:57:19;23.02;;;11.23;;
20697;SDS011;10508;50.956;4.640;2023-04-09T03:59:45;21.67;;;10.60;;
20697;SDS011;10508;50.956;4.640;2023-04-09T04:02:12;17.88;;;9.57;;
20697;SDS011;10508;50.956;4.640;2023-04-09T04:04:38;22.67;;;10.65;;
20697;SDS011;10508;50.956;4.640;2023-04-09T04:07:04;22.00;;;9.38;;
20697;SDS011;10508;50.956;4.640;2023-04-09T04:09:31;19.63;;;9.52;;
20697;SDS011;10508;50.956;4.640;2023-04-09T04:11:57;23.70;;;11.05;;
20697;SDS011;10508;50.956;4.640;2023-04-09T04:14:23;24.45;;;11.27;;
20697;SDS011;10508;50.956;4.640;2023-04-09T04:16:49;27.20;;;12.23;;
20697;SDS011;10508;50.956;4.640;2023-04-09T04:19:15;23.08;;;11.48;;
20697;SDS011;10508;50.956;4.640;2023-04-09T04:21:41;25.55;;;12.07;;
20697;SDS011;10508;50.956;4.640;2023-04-09T04:24:07;25.27;;;11.98;;
20697;SDS011;10508;50.956;4.640;2023-04-09T04:26:33;24.33;;;12.38;;
20697;SDS011;10508;50.956;4.640;2023-04-09T04:28:59;26.42;;;13.20;;
20697;SDS011;10508;50.956;4.640;2023-04-09T04:31:25;26.50;;;12.82;;
20697;SDS011;10508;50.956;4.640;2023-04-09T04:33:51;22.75;;;11.40;;
20697;SDS011;10508;50.956;4.640;2023-04-09T04:36:17;23.85;;;11.43;;
20697;SDS011;10508;50.956;4.640;2023-04-09T04:38:43;25.27;;;12.35;;
20697;SDS011;10508;50.956;4.640;2023-04-09T04:41:10;27.65;;;12.27;;
20697;SDS011;10508;50.956;4.640;2023-04-09T04:43:36;22.77;;;11.32;;
20697;SDS011;10508;50.956;4.640;2023-04-09T04:46:02;22.17;;;11.18;;
20697;SDS011;10508;50.956;4.640;2023-04-09T04:48:28;25.77;;;10.73;;
20697;SDS011;10508;50.956;4.640;2023-04-09T04:51:00;27.35;;;12.35;;
20697;SDS011;10508;50.956;4.640;2023-04-09T04:53:26;29.23;;;15.27;;
20697;SDS011;10508;50.956;4.640;2023-04-09T04:55:52;30.33;;;13.45;;
20697;SDS011;10508;50.956;4.640;2023-04-09T04:58:18;25.60;;;13.35;;
20697;SDS011;10508;50.956;4.640;2023-04-09T05:00:45;24.42;;;12.43;;
20697;SDS011;10508;50.956;4.640;2023-04-09T05:03:11;26.92;;;12.90;;
20697;SDS011;10508;50.956;4.640;2023-04-09T05:05:37;29.27;;;12.50;;
20697;SDS011;10508;50.956;4.640;2023-04-09T05:08:03;25.48;;;12.90;;
20697;SDS011;10508;50.956;4.640;2023-04-09T05:10:29;30.63;;;13.15;;
20697;SDS011;10508;50.956;4.640;2023-04-09T05:12:56;32.35;;;12.50;;
20697;SDS011;10508;50.956;4.640;2023-04-09T05:15:22;30.45;;;13.68;;
20697;SDS011;10508;50.956;4.640;2023-04-09T05:17:48;29.95;;;12.80;;
20697;SDS011;10508;50.956;4.640;2023-04-09T05:20:15;29.98;;;12.63;;
20697;SDS011;10508;50.956;4.640;2023-04-09T05:22:41;40.28;;;17.17;;
20697;SDS011;10508;50.956;4.640;2023-04-09T05:25:07;29.73;;;12.88;;
20697;SDS011;10508;50.956;4.640;2023-04-09T05:27:34;30.73;;;13.48;;
20697;SDS011;10508;50.956;4.640;2023-04-09T05:30:00;28.92;;;13.38;;
20697;SDS011;10508;50.956;4.640;2023-04-09T05:32:26;29.45;;;12.45;;
20697;SDS011;10508;50.956;4.640;2023-04-09T05:34:52;25.30;;;12.13;;
20697;SDS011;10508;50.956;4.640;2023-04-09T05:37:18;28.50;;;12.48;;
20697;SDS011;10508;50.956;4.640;2023-04-09T05:39:44;28.98;;;13.32;;
20697;SDS011;10508;50.956;4.640;2023-04-09T05:42:10;29.90;;;13.88;;
20697;SDS011;10508;50.956;4.640;2023-04-09T05:44:36;29.55;;;13.20;;
20697;SDS011;10508;50.956;4.640;2023-04-09T05:47:02;27.23;;;12.80;;
20697;SDS011;10508;50.956;4.640;2023-04-09T05:49:29;34.67;;;13.80;;
20697;SDS011;10508;50.956;4.640;2023-04-09T05:51:55;30.80;;;13.80;;
20697;SDS011;10508;50.956;4.640;2023-04-09T05:54:21;37.67;;;15.93;;
20697;SDS011;10508;50.956;4.640;2023-04-09T05:56:47;37.35;;;15.32;;
20697;SDS011;10508;50.956;4.640;2023-04-09T05:59:13;33.55;;;15.27;;
20697;SDS011;10508;50.956;4.640;2023-04-09T06:01:39;35.03;;;15.57;;
20697;SDS011;10508;50.956;4.640;2023-04-09T06:04:05;36.90;;;16.17;;
20697;SDS011;10508;50.956;4.640;2023-04-09T06:06:31;38.70;;;15.48;;
20697;SDS011;10508;50.956;4.640;2023-04-09T06:08:57;37.70;;;16.38;;
20697;SDS011;10508;50.956;4.640;2023-04-09T06:11:23;36.33;;;17.27;;
20697;SDS011;10508;50.956;4.640;2023-04-09T06:13:50;37.60;;;15.88;;
20697;SDS011;10508;50.956;4.640;2023-04-09T06:16:16;38.30;;;16.42;;
20697;SDS011;10508;50.956;4.640;2023-04-09T06:18:42;38.85;;;16.88;;
20697;SDS011;10508;50.956;4.640;2023-04-09T06:21:10;37.97;;;17.08;;
20697;SDS011;10508;50.956;4.640;2023-04-09T06:23:37;49.20;;;18.15;;
20697;SDS011;10508;50.956;4.640;2023-04-09T06:26:03;47.15;;;18.45;;
20697;SDS011;10508;50.956;4.640;2023-04-09T06:28:30;43.15;;;19.27;;
20697;SDS011;10508;50.956;4.640;2023-04-09T06:31:05;48.72;;;19.92;;
20697;SDS011;10508;50.956;4.640;2023-04-09T06:33:31;52.15;;;21.40;;
20697;SDS011;10508;50.956;4.640;2023-04-09T06:35:57;54.08;;;21.50;;
20697;SDS011;10508;50.956;4.640;2023-04-09T06:38:23;54.05;;;21.42;;
20697;SDS011;10508;50.956;4.640;2023-04-09T06:40:49;56.42;;;22.58;;
20697;SDS011;10508;50.956;4.640;2023-04-09T06:43:16;55.47;;;22.92;;
20697;SDS011;10508;50.956;4.640;2023-04-09T06:45:42;61.03;;;24.98;;
20697;SDS011;10508;50.956;4.640;2023-04-09T06:48:08;60.47;;;24.90;;
20697;SDS011;10508;50.956;4.640;2023-04-09T06:50:34;54.97;;;23.67;;
20697;SDS011;10508;50.956;4.640;2023-04-09T06:53:00;57.65;;;23.75;;
20697;SDS011;10508;50.956;4.640;2023-04-09T06:55:26;61.33;;;24.85;;
20697;SDS011;10508;50.956;4.640;2023-04-09T06:57:52;61.08;;;22.98;;
20697;SDS011;10508;50.956;4.640;2023-04-09T07:00:18;64.30;;;25.20;;
20697;SDS011;10508;50.956;4.640;2023-04-09T07:02:44;56.55;;;23.85;;
20697;SDS011;10508;50.956;4.640;2023-04-09T07:05:10;62.83;;;24.23;;
20697;SDS011;10508;50.956;4.640;2023-04-09T07:07:36;63.20;;;24.30;;
20697;SDS011;10508;50.956;4.640;2023-04-09T07:10:02;64.35;;;25.73;;
20697;SDS011;10508;50.956;4.640;2023-04-09T07:12:30;67.43;;;27.38;;
20697;SDS011;10508;50.956;4.640;2023-04-09T07:14:57;64.03;;;25.80;;
20697;SDS011;10508;50.956;4.640;2023-04-09T07:17:23;66.03;;;25.38;;
20697;SDS011;10508;50.956;4.640;2023-04-09T07:19:49;60.90;;;26.73;;
20697;SDS011;10508;50.956;4.640;2023-04-09T07:22:16;70.15;;;28.23;;
20697;SDS011;10508;50.956;4.640;2023-04-09T07:24:42;63.47;;;26.67;;
20697;SDS011;10508;50.956;4.640;2023-04-09T07:27:08;67.38;;;27.40;;
20697;SDS011;10508;50.956;4.640;2023-04-09T07:29:35;64.03;;;26.13;;
20697;SDS011;10508;50.956;4.640;2023-04-09T07:32:20;64.20;;;26.25;;
20697;SDS011;10508;50.956;4.640;2023-04-09T07:34:46;66.80;;;26.38;;
20697;SDS011;10508;50.956;4.640;2023-04-09T07:37:31;55.85;;;23.75;;
20697;SDS011;10508;50.956;4.640;2023-04-09T07:39:57;61.90;;;26.30;;
20697;SDS011;10508;50.956;4.640;2023-04-09T07:42:23;60.53;;;25.55;;
20697;SDS011;10508;50.956;4.640;2023-04-09T07:44:49;62.75;;;26.27;;
20697;SDS011;10508;50.956;4.640;2023-04-09T07:47:15;59.80;;;25.42;;
20697;SDS011;10508;50.956;4.640;2023-04-09T07:49:40;65.35;;;26.83;;
20697;SDS011;10508;50.956;4.640;2023-04-09T07:52:06;61.33;;;24.95;;
20697;SDS011;10508;50.956;4.640;2023-04-09T07:54:32;65.25;;;27.52;;
20697;SDS011;10508;50.956;4.640;2023-04-09T07:56:58;54.20;;;23.83;;
20697;SDS011;10508;50.956;4.640;2023-04-09T07:59:27;59.83;;;25.60;;
20697;SDS011;10508;50.956;4.640;2023-04-09T08:01:53;66.75;;;26.38;;
20697;SDS011;10508;50.956;4.640;2023-04-09T08:04:19;55.22;;;24.75;;
20697;SDS011;10508;50.956;4.640;2023-04-09T08:06:45;59.85;;;25.33;;
20697;SDS011;10508;50.956;4.640;2023-04-09T08:09:15;64.70;;;25.73;;
20697;SDS011;10508;50.956;4.640;2023-04-09T08:11:41;64.10;;;25.20;;
20697;SDS011;10508;50.956;4.640;2023-04-09T08:14:07;61.28;;;26.45;;
20697;SDS011;10508;50.956;4.640;2023-04-09T08:16:36;55.70;;;23.52;;
20697;SDS011;10508;50.956;4.640;2023-04-09T08:19:07;56.17;;;25.00;;
20697;SDS011;10508;50.956;4.640;2023-04-09T08:21:35;59.22;;;24.73;;
20697;SDS011;10508;50.956;4.640;2023-04-09T08:24:16;56.63;;;24.98;;
20697;SDS011;10508;50.956;4.640;2023-04-09T08:26:42;53.95;;;22.55;;
20697;SDS011;10508;50.956;4.640;2023-04-09T08:29:09;52.35;;;22.70;;
20697;SDS011;10508;50.956;4.640;2023-04-09T08:31:36;54.72;;;22.70;;
20697;SDS011;10508;50.956;4.640;2023-04-09T08:34:02;54.90;;;22.58;;
20697;SDS011;10508;50.956;4.640;2023-04-09T08:36:28;52.63;;;21.92;;
20697;SDS011;10508;50.956;4.640;2023-04-09T08:38:54;47.85;;;21.55;;
20697;SDS011;10508;50.956;4.640;2023-04-09T08:41:21;48.75;;;21.38;;
20697;SDS011;10508;50.956;4.640;2023-04-09T08:43:52;52.03;;;22.75;;
20697;SDS011;10508;50.956;4.640;2023-04-09T08:46:19;50.55;;;21.65;;
20697;SDS011;10508;50.956;4.640;2023-04-09T08:48:46;48.30;;;21.48;;
20697;SDS011;10508;50.956;4.640;2023-04-09T08:51:17;49.30;;;21.38;;
20697;SDS011;10508;50.956;4.640;2023-04-09T08:53:48;44.20;;;20.15;;
20697;SDS011;10508;50.956;4.640;2023-04-09T08:56:20;45.85;;;20.10;;
20697;SDS011;10508;50.956;4.640;2023-04-09T08:58:47;46.67;;;20.80;;
20697;SDS011;10508;50.956;4.640;2023-04-09T09:01:19;46.10;;;20.15;;
20697;SDS011;10508;50.956;4.640;2023-04-09T09:06:20;40.30;;;18.02;;
20697;SDS011;10508;50.956;4.640;2023-04-09T09:08:55;36.88;;;16.95;;
20697;SDS011;10508;50.956;4.640;2023-04-09T09:11:43;38.70;;;18.13;;
20697;SDS011;10508;50.956;4.640;2023-04-09T09:22:01;32.65;;;15.57;;
20697;SDS011;10508;50.956;4.640;2023-04-09T09:24:30;33.47;;;15.90;;
20697;SDS011;10508;50.956;4.640;2023-04-09T09:26:57;34.30;;;15.70;;
20697;SDS011;10508;50.956;4.640;2023-04-09T09:29:23;35.88;;;15.55;;
20697;SDS011;10508;50.956;4.640;2023-04-09T09:31:50;32.13;;;13.93;;
20697;SDS011;10508;50.956;4.640;2023-04-09T09:34:20;33.28;;;15.25;;
20697;SDS011;10508;50.956;4.640;2023-04-09T09:36:48;32.22;;;14.63;;
20697;SDS011;10508;50.956;4.640;2023-04-09T09:39:14;28.90;;;14.25;;
20697;SDS011;10508;50.956;4.640;2023-04-09T09:41:41;29.23;;;14.07;;
20697;SDS011;10508;50.956;4.640;2023-04-09T09:44:09;26.90;;;12.75;;
20697;SDS011;10508;50.956;4.640;2023-04-09T09:46:36;32.55;;;15.02;;
20697;SDS011;10508;50.956;4.640;2023-04-09T09:49:04;30.17;;;13.70;;
20697;SDS011;10508;50.956;4.640;2023-04-09T09:51:32;27.90;;;13.68;;
20697;SDS011;10508;50.956;4.640;2023-04-09T09:54:01;26.27;;;11.75;;
20697;SDS011;10508;50.956;4.640;2023-04-09T09:56:33;28.23;;;12.60;;
20697;SDS011;10508;50.956;4.640;2023-04-09T09:59:00;22.52;;;11.65;;
20697;SDS011;10508;50.956;4.640;2023-04-09T10:01:47;25.52;;;11.55;;
20697;SDS011;10508;50.956;4.640;2023-04-09T10:04:24;26.15;;;12.27;;
20697;SDS011;10508;50.956;4.640;2023-04-09T10:06:53;22.80;;;11.98;;
20697;SDS011;10508;50.956;4.640;2023-04-09T10:09:20;21.38;;;11.13;;
20697;SDS011;10508;50.956;4.640;2023-04-09T10:11:47;23.30;;;12.05;;
20697;SDS011;10508;50.956;4.640;2023-04-09T10:14:13;26.55;;;13.05;;
20697;SDS011;10508;50.956;4.640;2023-04-09T10:16:41;25.85;;;13.50;;
20697;SDS011;10508;50.956;4.640;2023-04-09T10:19:07;27.23;;;13.30;;
20697;SDS011;10508;50.956;4.640;2023-04-09T10:24:18;25.08;;;13.00;;
20697;SDS011;10508;50.956;4.640;2023-04-09T10:26:44;23.08;;;12.20;;
20697;SDS011;10508;50.956;4.640;2023-04-09T10:29:11;23.83;;;11.50;;
20697;SDS011;10508;50.956;4.640;2023-04-09T10:34:34;31.73;;;13.90;;
20697;SDS011;10508;50.956;4.640;2023-04-09T10:37:02;26.35;;;12.50;;
20697;SDS011;10508;50.956;4.640;2023-04-09T10:39:31;29.98;;;14.27;;
20697;SDS011;10508;50.956;4.640;2023-04-09T10:41:58;29.08;;;14.35;;
20697;SDS011;10508;50.956;4.640;2023-04-09T10:44:26;23.15;;;12.40;;
20697;SDS011;10508;50.956;4.640;2023-04-09T10:46:55;28.30;;;13.73;;
20697;SDS011;10508;50.956;4.640;2023-04-09T10:49:25;26.13;;;12.90;;
20697;SDS011;10508;50.956;4.640;2023-04-09T10:52:01;26.25;;;13.57;;
20697;SDS011;10508;50.956;4.640;2023-04-09T10:59:41;28.13;;;12.98;;
20697;SDS011;10508;50.956;4.640;2023-04-09T11:02:53;28.35;;;14.23;;
20697;SDS011;10508;50.956;4.640;2023-04-09T11:07:57;30.90;;;14.75;;
20697;SDS011;10508;50.956;4.640;2023-04-09T11:10:29;28.02;;;14.30;;
20697;SDS011;10508;50.956;4.640;2023-04-09T11:12:55;28.77;;;14.65;;
20697;SDS011;10508;50.956;4.640;2023-04-09T11:15:21;35.40;;;15.20;;
20697;SDS011;10508;50.956;4.640;2023-04-09T11:17:47;30.05;;;14.80;;
20697;SDS011;10508;50.956;4.640;2023-04-09T11:20:15;31.63;;;15.88;;
20697;SDS011;10508;50.956;4.640;2023-04-09T11:22:41;34.10;;;15.23;;
20697;SDS011;10508;50.956;4.640;2023-04-09T11:25:07;37.45;;;15.98;;
20697;SDS011;10508;50.956;4.640;2023-04-09T11:27:43;30.83;;;15.95;;
20697;SDS011;10508;50.956;4.640;2023-04-09T11:30:09;27.38;;;14.40;;
20697;SDS011;10508;50.956;4.640;2023-04-09T11:32:34;32.30;;;15.18;;
20697;SDS011;10508;50.956;4.640;2023-04-09T11:35:00;30.55;;;14.02;;
20697;SDS011;10508;50.956;4.640;2023-04-09T11:37:26;31.67;;;15.57;;
20697;SDS011;10508;50.956;4.640;2023-04-09T11:39:52;32.28;;;15.98;;
20697;SDS011;10508;50.956;4.640;2023-04-09T11:42:19;34.00;;;14.93;;
20697;SDS011;10508;50.956;4.640;2023-04-09T11:44:46;27.27;;;13.50;;
20697;SDS011;10508;50.956;4.640;2023-04-09T11:47:13;24.55;;;13.52;;
20697;SDS011;10508;50.956;4.640;2023-04-09T11:49:55;25.38;;;13.70;;
20697;SDS011;10508;50.956;4.640;2023-04-09T11:52:21;27.10;;;13.88;;
20697;SDS011;10508;50.956;4.640;2023-04-09T11:54:47;26.40;;;13.65;;
20697;SDS011;10508;50.956;4.640;2023-04-09T11:57:14;25.67;;;13.45;;
20697;SDS011;10508;50.956;4.640;2023-04-09T11:59:40;29.73;;;15.00;;
20697;SDS011;10508;50.956;4.640;2023-04-09T12:02:05;33.15;;;15.55;;
20697;SDS011;10508;50.956;4.640;2023-04-09T12:04:32;27.27;;;13.05;;
20697;SDS011;10508;50.956;4.640;2023-04-09T12:06:58;25.98;;;14.18;;
20697;SDS011;10508;50.956;4.640;2023-04-09T12:09:24;26.88;;;13.20;;
20697;SDS011;10508;50.956;4.640;2023-04-09T12:11:50;30.38;;;14.48;;
20697;SDS011;10508;50.956;4.640;2023-04-09T12:14:17;29.75;;;14.70;;
20697;SDS011;10508;50.956;4.640;2023-04-09T12:16:43;26.33;;;12.80;;
20697;SDS011;10508;50.956;4.640;2023-04-09T12:19:10;23.60;;;12.52;;
20697;SDS011;10508;50.956;4.640;2023-04-09T12:24:15;24.42;;;12.27;;
20697;SDS011;10508;50.956;4.640;2023-04-09T12:26:44;23.15;;;12.68;;
20697;SDS011;10508;50.956;4.640;2023-04-09T12:29:14;27.83;;;12.52;;
20697;SDS011;10508;50.956;4.640;2023-04-09T12:31:41;23.17;;;12.82;;
20697;SDS011;10508;50.956;4.640;2023-04-09T12:34:07;29.73;;;13.57;;
20697;SDS011;10508;50.956;4.640;2023-04-09T12:36:33;22.00;;;12.13;;
20697;SDS011;10508;50.956;4.640;2023-04-09T12:38:59;25.95;;;11.98;;
20697;SDS011;10508;50.956;4.640;2023-04-09T12:41:25;22.67;;;11.82;;
20697;SDS011;10508;50.956;4.640;2023-04-09T12:43:51;20.58;;;11.55;;
20697;SDS011;10508;50.956;4.640;2023-04-09T12:46:18;20.15;;;11.27;;
20697;SDS011;10508;50.956;4.640;2023-04-09T12:48:44;19.70;;;10.90;;
20697;SDS011;10508;50.956;4.640;2023-04-09T12:51:11;25.75;;;11.40;;
20697;SDS011;10508;50.956;4.640;2023-04-09T12:53:37;22.83;;;10.80;;
20697;SDS011;10508;50.956;4.640;2023-04-09T12:56:03;18.90;;;10.73;;
20697;SDS011;10508;50.956;4.640;2023-04-09T12:58:30;19.13;;;9.95;;
20697;SDS011;10508;50.956;4.640;2023-04-09T13:00:56;15.60;;;9.27;;
20697;SDS011;10508;50.956;4.640;2023-04-09T13:04:07;16.85;;;9.75;;
20697;SDS011;10508;50.956;4.640;2023-04-09T13:07:18;20.83;;;10.45;;
20697;SDS011;10508;50.956;4.640;2023-04-09T13:10:29;17.13;;;8.82;;
20697;SDS011;10508;50.956;4.640;2023-04-09T13:13:32;19.35;;;10.30;;
20697;SDS011;10508;50.956;4.640;2023-04-09T13:15:58;19.38;;;10.07;;
20697;SDS011;10508;50.956;4.640;2023-04-09T13:18:24;20.45;;;10.27;;
20697;SDS011;10508;50.956;4.640;2023-04-09T13:20:49;20.00;;;8.75;;
20697;SDS011;10508;50.956;4.640;2023-04-09T13:23:15;19.83;;;8.18;;
20697;SDS011;10508;50.956;4.640;2023-04-09T13:25:41;17.33;;;9.18;;
20697;SDS011;10508;50.956;4.640;2023-04-09T13:28:51;17.65;;;8.90;;
20697;SDS011;10508;50.956;4.640;2023-04-09T13:32:01;15.85;;;8.68;;
20697;SDS011;10508;50.956;4.640;2023-04-09T13:34:31;19.27;;;8.13;;
20697;SDS011;10508;50.956;4.640;2023-04-09T13:36:58;17.48;;;8.77;;
20697;SDS011;10508;50.956;4.640;2023-04-09T13:39:23;16.33;;;7.97;;
20697;SDS011;10508;50.956;4.640;2023-04-09T13:41:50;14.73;;;7.63;;
20697;SDS011;10508;50.956;4.640;2023-04-09T13:44:16;13.85;;;7.78;;
20697;SDS011;10508;50.956;4.640;2023-04-09T13:46:42;13.27;;;7.07;;
20697;SDS011;10508;50.956;4.640;2023-04-09T13:49:08;17.00;;;9.02;;
20697;SDS011;10508;50.956;4.640;2023-04-09T13:51:34;14.77;;;7.93;;
20697;SDS011;10508;50.956;4.640;2023-04-09T13:54:00;15.13;;;7.78;;
20697;SDS011;10508;50.956;4.640;2023-04-09T13:56:26;14.05;;;7.88;;
20697;SDS011;10508;50.956;4.640;2023-04-09T13:58:52;13.98;;;8.23;;
20697;SDS011;10508;50.956;4.640;2023-04-09T14:01:18;17.10;;;8.20;;
20697;SDS011;10508;50.956;4.640;2023-04-09T14:03:45;16.88;;;7.85;;
20697;SDS011;10508;50.956;4.640;2023-04-09T14:06:11;14.50;;;7.75;;
20697;SDS011;10508;50.956;4.640;2023-04-09T14:08:37;13.80;;;7.18;;
20697;SDS011;10508;50.956;4.640;2023-04-09T14:11:03;11.95;;;6.90;;
20697;SDS011;10508;50.956;4.640;2023-04-09T14:13:29;14.00;;;6.38;;
20697;SDS011;10508;50.956;4.640;2023-04-09T14:15:55;15.93;;;6.80;;
20697;SDS011;10508;50.956;4.640;2023-04-09T14:18:21;12.15;;;6.93;;
20697;SDS011;10508;50.956;4.640;2023-04-09T14:20:47;12.15;;;7.07;;
20697;SDS011;10508;50.956;4.640;2023-04-09T14:23:32;11.98;;;6.15;;
20697;SDS011;10508;50.956;4.640;2023-04-09T14:25:59;10.60;;;5.72;;
20697;SDS011;10508;50.956;4.640;2023-04-09T14:28:26;11.25;;;6.13;;
20697;SDS011;10508;50.956;4.640;2023-04-09T14:30:51;10.60;;;5.88;;
20697;SDS011;10508;50.956;4.640;2023-04-09T14:33:18;10.30;;;5.80;;
20697;SDS011;10508;50.956;4.640;2023-04-09T14:35:44;9.63;;;5.05;;
20697;SDS011;10508;50.956;4.640;2023-04-09T14:38:11;9.13;;;5.25;;
20697;SDS011;10508;50.956;4.640;2023-04-09T14:40:37;8.45;;;5.20;;
20697;SDS011;10508;50.956;4.640;2023-04-09T14:43:03;8.93;;;4.97;;
20697;SDS011;10508;50.956;4.640;2023-04-09T14:45:29;7.03;;;4.47;;
20697;SDS011;10508;50.956;4.640;2023-04-09T14:47:55;7.25;;;4.57;;
20697;SDS011;10508;50.956;4.640;2023-04-09T14:50:21;6.28;;;3.83;;
20697;SDS011;10508;50.956;4.640;2023-04-09T14:52:47;8.60;;;4.38;;
20697;SDS011;10508;50.956;4.640;2023-04-09T14:55:13;6.97;;;4.18;;
20697;SDS011;10508;50.956;4.640;2023-04-09T14:57:40;9.57;;;3.47;;
20697;SDS011;10508;50.956;4.640;2023-04-09T15:00:07;8.63;;;3.97;;